Time;durP1;ratioP1;P1;durP2;ratioP2;P2;SDS_P1;SDS_P2;PMS_P1;PMS_P2;Temp;Humidity;BMP_temperature;BMP_pressure;BME280_temperature;BME280_humidity;BME280_pressure;Samples;Min_cycle;Max_cycle;Signal;HPM_P1;HPM_P2
2022/11/19 00:01:19;;;;;;;95.25;27.52;;;;;;;11.62;100.00;98975.94;5067451;28;20111;-34
2022/11/19 00:03:45;;;;;;;93.18;26.70;;;;;;;11.59;100.00;98984.47;5085756;28;20032;-34
2022/11/19 00:06:22;;;;;;;95.82;29.65;;;;;;;11.51;100.00;98965.44;5048175;28;20037;-33
2022/11/19 00:08:47;;;;;;;105.10;29.93;;;;;;;11.37;100.00;98954.34;5047413;28;20119;-29
2022/11/19 00:11:15;;;;;;;86.80;28.33;;;;;;;11.41;100.00;98963.47;5065641;28;20119;-35
2022/11/19 00:13:42;;;;;;;115.95;31.25;;;;;;;11.50;100.00;98975.28;5047227;28;20582;-37
2022/11/19 00:16:11;;;;;;;104.38;26.98;;;;;;;11.68;100.00;98986.69;5065976;28;20071;-30
2022/11/19 00:18:37;;;;;;;92.10;24.35;;;;;;;11.66;100.00;98989.63;5047688;28;20097;-31
2022/11/19 00:21:05;;;;;;;87.75;28.25;;;;;;;11.61;100.00;99006.41;5047507;28;20075;-29
2022/11/19 00:23:30;;;;;;;84.22;25.15;;;;;;;11.63;100.00;98998.94;5050813;28;20030;-33
2022/11/19 00:25:56;;;;;;;106.72;27.02;;;;;;;11.33;100.00;98974.59;5069624;28;20089;-33
2022/11/19 00:28:21;;;;;;;101.95;29.52;;;;;;;11.34;100.00;98985.03;5069327;28;20033;-35
2022/11/19 00:30:47;;;;;;;128.93;29.88;;;;;;;11.38;100.00;98966.63;5069600;28;20028;-32
2022/11/19 00:33:12;;;;;;;118.97;28.80;;;;;;;11.20;100.00;98984.59;5069328;28;20044;-32
2022/11/19 00:35:37;;;;;;;105.97;29.35;;;;;;;11.35;100.00;98993.84;5069503;28;20021;-31
2022/11/19 00:38:04;;;;;;;115.85;28.85;;;;;;;11.44;100.00;99003.81;5069136;28;20029;-29
2022/11/19 00:40:29;;;;;;;139.20;38.55;;;;;;;11.40;100.00;99001.88;5051166;28;20021;-33
2022/11/19 00:45:39;;;;;;;119.32;29.70;;;;;;;11.36;100.00;99016.78;5069487;28;20035;-32
2022/11/19 00:48:05;;;;;;;173.65;49.17;;;;;;;11.26;100.00;99004.16;5068814;28;20473;-36
2022/11/19 00:50:30;;;;;;;133.38;31.25;;;;;;;11.25;100.00;99005.19;5069061;28;20032;-30
2022/11/19 00:52:56;;;;;;;102.15;27.98;;;;;;;11.20;100.00;99008.63;5069067;28;20054;-33
2022/11/19 00:55:21;;;;;;;135.15;33.78;;;;;;;11.29;100.00;99016.19;5069024;28;20024;-32
2022/11/19 00:57:46;;;;;;;122.97;31.05;;;;;;;11.14;100.00;99016.81;5069025;28;20189;-31
2022/11/19 01:00:12;;;;;;;163.43;33.38;;;;;;;11.42;100.00;99042.47;5069383;28;20043;-35
2022/11/19 01:02:38;;;;;;;118.15;30.13;;;;;;;11.55;100.00;99052.78;5051022;28;20035;-29
2022/11/19 01:05:04;;;;;;;141.73;30.77;;;;;;;11.32;100.00;99031.69;5068892;28;20031;-32
2022/11/19 01:07:29;;;;;;;115.65;27.58;;;;;;;11.48;100.00;99062.84;5050663;28;20043;-33
2022/11/19 01:09:54;;;;;;;180.63;32.60;;;;;;;11.55;100.00;99052.78;5068304;28;20035;-30
2022/11/19 01:12:20;;;;;;;134.15;33.13;;;;;;;11.60;100.00;99060.84;5068862;28;20444;-29
2022/11/19 01:14:45;;;;;;;125.97;34.00;;;;;;;11.57;100.00;99053.34;5068574;28;20028;-30
2022/11/19 01:17:11;;;;;;;135.00;31.45;;;;;;;11.57;100.00;99061.38;5068781;28;20032;-29
2022/11/19 01:19:36;;;;;;;117.32;32.40;;;;;;;11.49;100.00;99067.16;5068593;28;20060;-30
2022/11/19 01:22:02;;;;;;;148.27;31.55;;;;;;;11.37;100.00;99080.59;5068482;28;20036;-33
2022/11/19 01:24:27;;;;;;;150.60;34.92;;;;;;;11.14;100.00;99088.84;5050109;28;20032;-32
2022/11/19 01:26:52;;;;;;;133.73;34.22;;;;;;;11.19;100.00;99075.56;5068550;28;20090;-32
2022/11/19 01:29:18;;;;;;;140.30;31.90;;;;;;;11.15;100.00;99045.09;5068161;28;20017;-33
2022/11/19 01:31:43;;;;;;;151.13;33.92;;;;;;;11.06;100.00;99044.72;5068328;28;20034;-30
2022/11/19 01:34:09;;;;;;;161.38;33.28;;;;;;;11.08;100.00;99039.94;5067463;28;20028;-41
2022/11/19 01:36:34;;;;;;;120.65;29.00;;;;;;;11.21;100.00;99050.25;5068184;28;20028;-30
2022/11/19 01:39:00;;;;;;;138.32;32.92;;;;;;;11.23;100.00;99048.13;5068385;28;20445;-31
2022/11/19 01:41:28;;;;;;;129.20;32.45;;;;;;;11.14;100.00;99038.16;5050264;28;20082;-32
2022/11/19 01:43:58;;;;;;;128.85;33.83;;;;;;;11.21;100.00;99079.59;5050150;28;20064;-29
2022/11/19 01:46:32;;;;;;;111.13;31.17;;;;;;;11.28;100.00;99079.44;5050029;28;20033;-36
2022/11/19 01:49:11;;;;;;;128.20;31.65;;;;;;;11.20;100.00;99103.88;5068010;28;20504;-33
2022/11/19 01:51:42;;;;;;;142.52;33.33;;;;;;;11.01;100.00;99101.50;5049677;28;20024;-29
2022/11/19 01:54:30;;;;;;;140.75;32.40;;;;;;;11.03;100.00;99098.56;5050114;28;20037;-30
2022/11/19 01:57:00;;;;;;;118.60;29.73;;;;;;;10.94;100.00;99100.84;5067966;28;20032;-29
2022/11/19 01:59:29;;;;;;;124.47;30.90;;;;;;;10.77;100.00;99105.41;5049691;28;20302;-29
2022/11/19 02:01:55;;;;;;;144.15;31.58;;;;;;;10.83;100.00;99115.91;5049633;28;20031;-32
2022/11/19 02:04:21;;;;;;;143.38;33.45;;;;;;;10.80;100.00;99094.25;5049731;28;20708;-31
2022/11/19 02:06:47;;;;;;;119.47;29.38;;;;;;;10.99;100.00;99119.59;5067698;28;20039;-31
2022/11/19 02:09:13;;;;;;;126.10;31.17;;;;;;;10.96;100.00;99124.63;5067825;28;20060;-30
2022/11/19 02:12:01;;;;;;;139.00;34.03;;;;;;;10.86;100.00;99139.41;5049486;28;20040;-32
2022/11/19 02:14:46;;;;;;;168.88;38.78;;;;;;;10.82;100.00;99150.81;5049096;28;20028;-32
2022/11/19 02:17:51;;;;;;;144.82;37.42;;;;;;;10.98;100.00;99144.66;5067993;28;20043;-30
2022/11/19 02:20:37;;;;;;;158.85;37.53;;;;;;;10.94;100.00;99153.41;5067431;28;20108;-31
2022/11/19 02:23:28;;;;;;;155.05;35.42;;;;;;;10.94;100.00;99169.41;5067254;28;20037;-34
2022/11/19 02:26:18;;;;;;;140.40;33.55;;;;;;;10.78;100.00;99179.81;5067205;28;20507;-32
2022/11/19 02:28:52;;;;;;;129.23;32.65;;;;;;;10.59;100.00;99183.78;5067481;28;20043;-37
2022/11/19 02:31:17;;;;;;;138.73;34.95;;;;;;;10.69;100.00;99197.28;5049303;28;20025;-31
2022/11/19 02:33:49;;;;;;;166.75;37.58;;;;;;;10.66;100.00;99200.41;5067283;28;20029;-33
2022/11/19 02:36:27;;;;;;;137.73;31.23;;;;;;;10.62;100.00;99193.94;5049297;28;20028;-35
2022/11/19 02:39:02;;;;;;;;;;;;;;;10.77;100.00;99207.56;5049728;28;20025;-31
2022/11/19 02:42:07;;;;;;;123.70;31.48;;;;;;;10.72;100.00;99201.31;5049198;28;20453;-30
2022/11/19 02:45:12;;;;;;;135.40;33.55;;;;;;;10.73;100.00;99181.63;5051994;28;20033;-30
2022/11/19 02:47:45;;;;;;;141.05;32.67;;;;;;;10.72;100.00;99166.66;5036777;28;20032;-33
2022/11/19 02:50:16;;;;;;;125.80;31.77;;;;;;;10.88;100.00;99186.38;5048584;28;20144;-29
2022/11/19 02:52:44;;;;;;;149.02;34.15;;;;;;;10.92;100.00;99185.66;5048984;28;20043;-32
2022/11/19 02:55:20;;;;;;;137.63;35.03;;;;;;;10.89;100.00;99193.31;5048769;28;20039;-30
2022/11/19 02:58:09;;;;;;;132.15;33.80;;;;;;;10.93;100.00;99199.78;5048574;28;20119;-30
2022/11/19 03:06:23;;;;;;;96.60;30.23;;;;;;;10.83;100.00;99206.59;5066789;28;20424;-29
2022/11/19 03:08:49;;;;;;;106.10;30.02;;;;;;;11.18;100.00;99218.88;5048358;28;20033;-31
2022/11/19 03:11:26;;;;;;;102.75;31.58;;;;;;;11.10;100.00;99235.28;5066839;28;20031;-29
2022/11/19 03:17:20;;;;;;;103.32;33.42;;;;;;;11.11;100.00;99239.56;5066916;28;20039;-33
2022/11/19 03:19:55;;;;;;;118.93;35.00;;;;;;;11.25;100.00;99259.53;5066521;28;20048;-31
2022/11/19 03:22:28;;;;;;;150.90;41.00;;;;;;;11.21;100.00;99258.41;5066582;28;20033;-35
2022/11/19 03:25:30;;;;;;;146.15;44.28;;;;;;;11.22;100.00;99251.22;5048275;28;20044;-29
2022/11/19 03:28:02;;;;;;;105.20;34.35;;;;;;;11.23;100.00;99256.31;5034805;28;20085;-32
2022/11/19 03:30:29;;;;;;;110.78;33.35;;;;;;;11.35;100.00;99263.44;5031558;28;20039;-30
2022/11/19 03:33:17;;;;;;;92.95;29.40;;;;;;;11.19;100.00;99235.69;5048373;28;20082;-30
2022/11/19 03:35:48;;;;;;;98.47;31.98;;;;;;;11.32;100.00;99250.56;5065862;28;20124;-30
2022/11/19 03:38:19;;;;;;;85.18;28.90;;;;;;;11.27;100.00;99244.09;5066499;28;20032;-34
2022/11/19 03:40:46;;;;;;;105.10;30.90;;;;;;;11.31;100.00;99243.63;5066154;28;20032;-33
2022/11/19 03:43:17;;;;;;;91.63;28.83;;;;;;;11.27;100.00;99241.41;5066258;28;20035;-32
2022/11/19 03:45:46;;;;;;;82.45;27.63;;;;;;;11.26;100.00;99241.69;5047886;28;20025;-29
2022/11/19 03:48:14;;;;;;;79.53;26.08;;;;;;;11.12;100.00;99246.53;5066105;28;20083;-29
2022/11/19 03:50:56;;;;;;;79.15;30.45;;;;;;;11.21;100.00;99279.75;5065999;28;20024;-35
2022/11/19 03:53:22;;;;;;;74.38;27.63;;;;;;;11.33;100.00;99292.22;5066193;28;20028;-30
2022/11/19 03:55:54;;;;;;;93.22;29.02;;;;;;;11.19;100.00;99302.41;5065791;28;20020;-32
2022/11/19 03:58:23;;;;;;;87.88;29.33;;;;;;;10.99;100.00;99298.34;5065679;28;20040;-33
2022/11/19 04:00:49;;;;;;;92.20;28.70;;;;;;;10.85;100.00;99281.84;5066023;28;20141;-29
2022/11/19 04:03:14;;;;;;;81.80;27.35;;;;;;;10.88;100.00;99288.53;5066331;28;20673;-29
2022/11/19 04:05:39;;;;;;;82.47;28.50;;;;;;;11.13;100.00;99312.19;5066139;28;20134;-29
2022/11/19 04:08:05;;;;;;;80.72;28.33;;;;;;;10.96;100.00;99292.69;5065683;28;20381;-34
2022/11/19 04:10:30;;;;;;;75.75;25.05;;;;;;;11.10;100.00;99304.66;5066209;28;20029;-29
2022/11/19 04:12:56;;;;;;;74.18;26.27;;;;;;;11.20;100.00;99307.50;5065745;28;20472;-32
2022/11/19 04:15:21;;;;;;;76.65;25.77;;;;;;;11.15;100.00;99294.06;5065864;28;20500;-35
2022/11/19 04:17:46;;;;;;;69.53;24.15;;;;;;;11.12;100.00;99309.78;5065721;28;20415;-30
2022/11/19 04:20:12;;;;;;;65.45;24.40;;;;;;;11.06;100.00;99314.22;5065898;28;20036;-33
2022/11/19 04:22:38;;;;;;;61.33;23.40;;;;;;;11.00;100.00;99291.16;5065376;28;20039;-29
2022/11/19 04:25:03;;;;;;;58.15;23.00;;;;;;;11.25;100.00;99314.78;5047406;28;20031;-30
2022/11/19 04:27:29;;;;;;;58.58;23.13;;;;;;;11.13;100.00;99309.50;5065879;28;20032;-32
2022/11/19 04:29:54;;;;;;;60.65;22.92;;;;;;;11.20;100.00;99322.72;5065259;28;20032;-30
2022/11/19 04:32:20;;;;;;;66.18;24.85;;;;;;;11.11;100.00;99297.47;5047792;28;20035;-29
2022/11/19 04:34:45;;;;;;;60.42;25.25;;;;;;;11.20;100.00;99299.50;5065250;28;20046;-30
2022/11/19 04:37:10;;;;;;;66.13;24.25;;;;;;;11.35;100.00;99320.28;5065768;28;20601;-29
2022/11/19 04:39:36;;;;;;;75.57;27.98;;;;;;;11.23;100.00;99287.53;5065537;28;20039;-31
2022/11/19 04:42:01;;;;;;;80.25;27.52;;;;;;;11.23;100.00;99283.00;5065463;28;20059;-30
2022/11/19 04:44:27;;;;;;;77.60;27.90;;;;;;;11.12;100.00;99286.56;5065647;28;20024;-29
2022/11/19 04:46:52;;;;;;;86.53;28.77;;;;;;;11.25;100.00;99315.59;5047879;28;20029;-29
2022/11/19 04:49:18;;;;;;;75.90;26.83;;;;;;;11.16;100.00;99333.06;5065264;28;20727;-30
2022/11/19 04:51:43;;;;;;;84.13;27.50;;;;;;;11.20;100.00;99336.88;5065319;28;20083;-29
2022/11/19 04:54:08;;;;;;;92.05;29.98;;;;;;;11.18;100.00;99322.16;5065627;28;20028;-29
2022/11/19 04:56:35;;;;;;;88.50;29.77;;;;;;;11.26;100.00;99330.56;5065305;28;20052;-29
2022/11/19 04:59:01;;;;;;;79.00;30.67;;;;;;;11.49;100.00;99312.78;5047322;28;20029;-31
2022/11/19 05:01:27;;;;;;;94.97;29.30;;;;;;;11.29;100.00;99336.47;5047493;28;20480;-30
2022/11/19 05:03:52;;;;;;;93.57;29.88;;;;;;;11.10;100.00;99349.22;5065199;28;20036;-30
2022/11/19 05:06:17;;;;;;;83.68;28.35;;;;;;;11.14;100.00;99359.19;5047500;28;20025;-31
2022/11/19 05:08:43;;;;;;;84.78;27.45;;;;;;;11.14;100.00;99371.72;5066012;28;20031;-33
2022/11/19 05:11:09;;;;;;;94.88;32.10;;;;;;;11.20;100.00;99365.41;5050664;28;20035;-29
2022/11/19 05:13:35;;;;;;;94.93;29.33;;;;;;;11.10;100.00;99379.38;5068777;28;20028;-29
2022/11/19 05:16:00;;;;;;;106.03;31.52;;;;;;;11.04;100.00;99365.13;5068684;28;20082;-32
2022/11/19 05:18:25;;;;;;;100.65;32.30;;;;;;;10.97;100.00;99379.66;5068754;28;20081;-32
2022/11/19 05:20:51;;;;;;;103.45;33.03;;;;;;;11.14;100.00;99388.53;5068821;28;20032;-29
2022/11/19 05:23:16;;;;;;;123.68;34.03;;;;;;;11.17;100.00;99385.38;5068680;28;20033;-30
2022/11/19 05:25:42;;;;;;;121.13;33.13;;;;;;;10.94;100.00;99374.81;5068629;28;20052;-34
2022/11/19 05:28:07;;;;;;;70.75;27.20;;;;;;;10.84;100.00;99368.22;5068764;28;20036;-34
2022/11/19 05:30:33;;;;;;;71.88;23.38;;;;;;;10.87;100.00;99372.28;5068632;28;20493;-31
2022/11/19 05:32:58;;;;;;;78.97;23.33;;;;;;;10.97;100.00;99390.34;5069040;28;20032;-31
2022/11/19 05:35:24;;;;;;;57.47;21.60;;;;;;;10.67;100.00;99378.03;5069034;28;20427;-34
2022/11/19 05:37:50;;;;;;;46.80;18.17;;;;;;;10.91;100.00;99409.94;5068415;28;20452;-31
2022/11/19 05:40:17;;;;;;;39.08;17.42;;;;;;;10.80;100.00;99393.75;5068270;28;20089;-30
2022/11/19 05:42:42;;;;;;;40.83;17.83;;;;;;;10.73;100.00;99392.28;5050241;28;20040;-30
2022/11/19 05:45:09;;;;;;;42.30;17.48;;;;;;;10.88;100.00;99415.78;5067940;28;20814;-31
2022/11/19 05:47:35;;;;;;;56.10;18.20;;;;;;;10.91;100.00;99412.63;5068640;28;20043;-28
2022/11/19 05:50:00;;;;;;;42.97;18.63;;;;;;;11.03;100.00;99422.22;5067658;28;20200;-28
2022/11/19 05:52:26;;;;;;;39.17;16.85;;;;;;;11.01;100.00;99420.81;5068529;28;20037;-31
2022/11/19 05:54:51;;;;;;;46.13;19.08;;;;;;;10.83;100.00;99424.50;5068081;28;20024;-30
2022/11/19 05:57:16;;;;;;;44.13;17.38;;;;;;;10.82;100.00;99404.19;5068053;28;20025;-32
2022/11/19 05:59:42;;;;;;;33.03;15.15;;;;;;;10.90;100.00;99424.34;5067706;28;20593;-33
2022/11/19 06:02:07;;;;;;;34.42;16.05;;;;;;;10.96;100.00;99431.41;5049974;28;20035;-30
2022/11/19 06:04:33;;;;;;;32.42;15.38;;;;;;;10.85;100.00;99444.53;5068039;28;20028;-29
2022/11/19 06:06:58;;;;;;;34.35;16.92;;;;;;;10.63;100.00;99427.56;5049736;28;20024;-32
2022/11/19 06:09:23;;;;;;;36.97;18.42;;;;;;;10.98;100.00;99469.34;5067851;28;20488;-30
2022/11/19 06:11:49;;;;;;;34.17;17.17;;;;;;;10.91;100.00;99447.31;5067555;28;20024;-38
2022/11/19 06:14:21;;;;;;;34.08;17.40;;;;;;;11.02;100.00;99459.81;5067846;28;20736;-29
2022/11/19 06:16:51;;;;;;;30.17;15.35;;;;;;;11.27;100.00;99470.97;5049916;28;20075;-30
2022/11/19 06:19:17;;;;;;;30.85;15.07;;;;;;;11.17;100.00;99468.09;5067477;28;20048;-29
2022/11/19 06:21:43;;;;;;;28.33;15.57;;;;;;;11.34;100.00;99483.38;5049398;28;20024;-29
2022/11/19 06:24:09;;;;;;;25.00;14.52;;;;;;;11.34;100.00;99470.00;5067379;28;20035;-31
2022/11/19 06:26:34;;;;;;;28.77;15.65;;;;;;;11.54;100.00;99494.41;5067417;28;20511;-30
2022/11/19 06:29:00;;;;;;;28.17;15.85;;;;;;;11.57;100.00;99501.16;5067387;28;20070;-32
2022/11/19 06:31:25;;;;;;;27.85;15.10;;;;;;;11.36;100.00;99502.63;5067506;28;20029;-32
2022/11/19 06:33:54;;;;;;;29.88;15.65;;;;;;;11.63;100.00;99514.38;5067180;28;20020;-29
2022/11/19 06:36:20;;;;;;;29.95;15.80;;;;;;;11.74;100.00;99501.19;5049243;28;20028;-30
2022/11/19 06:38:45;;;;;;;29.85;16.80;;;;;;;11.83;100.00;99505.13;5067367;28;20028;-32
2022/11/19 06:41:11;;;;;;;31.55;17.27;;;;;;;11.83;100.00;99502.44;5066786;28;20515;-30
2022/11/19 06:43:36;;;;;;;34.63;18.25;;;;;;;11.92;100.00;99511.69;5067303;28;20081;-30
2022/11/19 06:46:02;;;;;;;38.58;19.05;;;;;;;12.02;100.00;99511.88;5066746;28;20028;-30
2022/11/19 06:48:27;;;;;;;37.88;18.92;;;;;;;12.22;100.00;99515.94;5067020;28;20040;-30
2022/11/19 06:50:53;;;;;;;37.47;20.00;;;;;;;12.28;100.00;99514.97;5066561;28;20040;-29
2022/11/19 06:53:18;;;;;;;43.80;19.63;;;;;;;12.43;100.00;99496.47;5067041;28;20036;-29
2022/11/19 06:55:43;;;;;;;51.13;18.92;;;;;;;12.42;100.00;99510.91;5066548;28;20392;-29
2022/11/19 06:58:09;;;;;;;44.20;19.88;;;;;;;12.44;100.00;99513.31;5067044;28;20033;-31
2022/11/19 07:00:35;;;;;;;46.97;20.80;;;;;;;12.42;100.00;99505.56;5067199;28;20032;-29
2022/11/19 07:03:00;;;;;;;44.78;21.55;;;;;;;12.11;100.00;99516.81;5067116;28;20166;-34
2022/11/19 07:05:26;;;;;;;37.95;19.50;;;;;;;12.04;100.00;99522.31;5067112;28;20056;-29
2022/11/19 07:07:52;;;;;;;47.63;22.00;;;;;;;11.98;100.00;99528.63;5066450;28;20033;-30
2022/11/19 07:10:17;;;;;;;49.13;20.70;;;;;;;11.69;100.00;99509.09;5055133;28;20035;-32
2022/11/19 07:12:43;;;;;;;50.70;21.10;;;;;;;11.85;100.00;99527.06;5086668;28;20078;-31
2022/11/19 07:15:09;;;;;;;50.97;22.17;;;;;;;11.85;100.00;99517.16;5086877;28;20471;-30
2022/11/19 07:17:34;;;;;;;54.90;22.70;;;;;;;11.85;100.00;99516.38;5086694;28;20081;-31
2022/11/19 07:20:00;;;;;;;53.45;24.15;;;;;;;12.06;100.00;99534.38;5086601;28;20818;-32
2022/11/19 07:22:26;;;;;;;60.85;24.60;;;;;;;11.92;100.00;99529.59;5086768;28;20028;-29
2022/11/19 07:24:52;;;;;;;54.92;24.08;;;;;;;11.85;100.00;99549.22;5086255;28;20020;-31
2022/11/19 07:27:17;;;;;;;54.90;24.20;;;;;;;11.89;100.00;99570.97;5087341;28;20035;-32
2022/11/19 07:29:43;;;;;;;51.25;23.35;;;;;;;11.91;100.00;99547.50;5086057;28;20059;-29
2022/11/19 07:32:08;;;;;;;52.33;22.08;;;;;;;12.08;100.00;99546.72;5086028;28;20081;-34
2022/11/19 07:34:34;;;;;;;54.90;23.75;;;;;;;12.00;100.00;99556.72;5068141;28;20411;-30
2022/11/19 07:36:59;;;;;;;53.83;23.70;;;;;;;11.95;100.00;99563.84;5086548;28;20706;-31
2022/11/19 07:39:24;;;;;;;56.13;26.00;;;;;;;12.00;100.00;99577.31;5086253;28;20506;-29
2022/11/19 07:44:34;;;;;;;74.47;30.83;;;;;;;12.05;100.00;99567.53;5086409;28;20168;-29
2022/11/19 07:46:59;;;;;;;68.15;30.13;;;;;;;12.16;100.00;99559.69;5086746;28;20115;-31
2022/11/19 07:49:25;;;;;;;113.30;48.50;;;;;;;12.48;100.00;99575.97;5084783;28;20438;-29
2022/11/19 07:51:52;;;;;;;75.85;29.95;;;;;;;12.33;100.00;99589.09;5085867;28;20052;-38
2022/11/19 07:54:18;;;;;;;68.10;29.90;;;;;;;12.44;100.00;99578.34;5086632;28;20024;-31
2022/11/19 07:56:43;;;;;;;67.07;29.10;;;;;;;12.68;100.00;99596.88;5086236;28;20028;-30
2022/11/19 07:59:09;;;;;;;105.78;41.30;;;;;;;12.76;100.00;99591.13;5086355;28;20035;-30
2022/11/19 08:01:35;;;;;;;57.40;27.27;;;;;;;12.61;100.00;99593.56;5085968;28;20032;-30
2022/11/19 08:04:01;;;;;;;59.95;29.45;;;;;;;12.98;100.00;99595.72;5086302;28;20066;-31
2022/11/19 08:06:28;;;;;;;77.88;37.22;;;;;;;13.71;100.00;99600.94;5085871;28;20415;-30
2022/11/19 08:08:57;;;;;;;83.10;41.35;;;;;;;13.95;100.00;99594.25;5067787;28;20032;-29
2022/11/19 08:11:23;;;;;;;49.33;25.52;;;;;;;13.98;100.00;99614.41;5067684;28;20036;-29
2022/11/19 08:13:48;;;;;;;71.72;29.92;;;;;;;14.31;100.00;99616.06;5086068;28;20031;-31
2022/11/19 08:18:11;;;;;;;50.47;26.23;;;;;;;14.34;100.00;99610.16;5086265;28;20115;-28
2022/11/19 08:19:02;;;;;;;52.33;26.08;;;;;;;13.92;100.00;99613.53;5085780;28;20028;-32
2022/11/19 08:21:28;;;;;;;63.90;35.50;;;;;;;13.91;100.00;99638.69;5067923;28;20036;-29
2022/11/19 08:23:54;;;;;;;53.05;25.73;;;;;;;13.90;100.00;99647.81;5067624;28;20314;-30
2022/11/19 08:26:19;;;;;;;46.88;23.77;;;;;;;13.78;100.00;99639.09;5086148;28;20051;-31
2022/11/19 08:28:44;;;;;;;48.83;24.52;;;;;;;13.58;100.00;99621.69;5085999;28;20024;-30
2022/11/19 08:31:10;;;;;;;48.55;24.25;;;;;;;13.56;100.00;99621.13;5085940;28;20024;-29
2022/11/19 08:33:35;;;;;;;58.28;37.35;;;;;;;14.20;100.00;99619.69;5085754;28;20498;-31
2022/11/19 08:36:01;;;;;;;201.95;180.35;;;;;;;14.94;100.00;99624.38;5085658;28;20031;-34
2022/11/19 08:38:27;;;;;;;170.15;151.13;;;;;;;15.91;99.12;99604.41;5085735;28;20475;-31
2022/11/19 08:42:58;;;;;;;132.25;116.82;;;;;;;17.30;98.24;99589.03;5085934;28;20028;-35
2022/11/19 08:43:38;;;;;;;43.55;30.38;;;;;;;18.78;87.07;99623.22;5087914;28;20402;-30
2022/11/19 08:46:04;;;;;;;146.98;132.40;;;;;;;17.51;88.47;99614.00;5089330;28;20035;-32
2022/11/19 08:48:30;;;;;;;48.17;30.77;;;;;;;18.20;89.13;99613.13;5070951;28;20123;-33
2022/11/19 08:50:55;;;;;;;51.95;30.90;;;;;;;17.18;92.86;99622.50;5071376;28;20028;-31
2022/11/19 08:53:20;;;;;;;55.78;33.88;;;;;;;17.40;93.04;99635.59;5089760;28;20486;-29
2022/11/19 08:55:50;;;;;;;46.63;26.92;;;;;;;16.97;92.72;99631.69;5089342;28;20028;-31
2022/11/19 08:58:15;;;;;;;51.00;29.13;;;;;;;16.85;96.19;99645.41;5071446;28;20576;-30
2022/11/19 09:00:41;;;;;;;49.60;28.67;;;;;;;18.11;93.49;99641.00;5089810;28;20043;-36
2022/11/19 09:03:06;;;;;;;50.58;26.85;;;;;;;17.60;91.34;99629.34;5089842;28;20032;-28
2022/11/19 09:05:32;;;;;;;51.72;34.55;;;;;;;16.58;92.52;99618.75;5089918;28;20479;-29
2022/11/19 09:07:57;;;;;;;64.68;52.90;;;;;;;15.76;96.72;99629.38;5070944;28;20024;-33
2022/11/19 09:10:23;;;;;;;49.53;28.85;;;;;;;15.25;99.48;99619.97;5089369;28;20024;-29
2022/11/19 09:12:48;;;;;;;50.47;29.52;;;;;;;15.03;100.00;99627.38;5089436;28;20043;-32
2022/11/19 09:15:14;;;;;;;47.00;26.58;;;;;;;14.96;100.00;99642.91;5089155;28;20085;-31
2022/11/19 09:17:39;;;;;;;41.25;24.00;;;;;;;15.06;100.00;99648.34;5089324;28;20454;-32
2022/11/19 09:20:06;;;;;;;42.97;24.55;;;;;;;14.94;100.00;99645.84;5088837;28;20028;-29
2022/11/19 09:22:31;;;;;;;48.15;25.10;;;;;;;14.89;100.00;99651.16;5089089;28;20483;-32
2022/11/19 09:24:57;;;;;;;47.00;27.08;;;;;;;14.95;100.00;99646.66;5089039;28;20024;-28
2022/11/19 09:27:22;;;;;;;45.40;24.77;;;;;;;14.89;100.00;99626.19;5089220;28;20032;-31
2022/11/19 09:29:48;;;;;;;40.70;24.52;;;;;;;14.93;100.00;99638.03;5088520;28;20115;-30
2022/11/19 09:32:14;;;;;;;43.80;24.48;;;;;;;14.89;100.00;99628.88;5088707;28;20040;-36
2022/11/19 09:34:40;;;;;;;48.83;26.70;;;;;;;14.88;100.00;99629.97;5088948;28;20032;-29
2022/11/19 09:37:09;;;;;;;43.97;25.55;;;;;;;14.64;100.00;99619.56;5088986;28;20067;-30
2022/11/19 09:39:35;;;;;;;48.97;26.55;;;;;;;14.81;100.00;99622.09;5070566;28;20055;-31
2022/11/19 09:42:26;;;;;;;51.70;26.70;;;;;;;15.00;100.00;99622.53;5088876;28;20039;-29
2022/11/19 09:44:55;;;;;;;44.30;25.52;;;;;;;14.78;100.00;99618.06;5070731;28;20028;-29
2022/11/19 09:47:38;;;;;;;56.38;26.77;;;;;;;15.04;100.00;99618.25;5088789;28;20491;-31
2022/11/19 09:50:21;;;;;;;41.90;25.17;;;;;;;15.01;100.00;99602.66;5088072;28;20052;-36
2022/11/19 09:53:02;;;;;;;43.80;24.23;;;;;;;15.24;100.00;99594.19;5070068;28;20020;-31
2022/11/19 09:55:32;;;;;;;42.38;23.88;;;;;;;15.94;100.00;99591.25;5088412;28;20793;-31
2022/11/19 09:57:59;;;;;;;37.38;22.05;;;;;;;16.53;97.96;99591.81;5069797;28;20032;-29
2022/11/19 10:00:29;;;;;;;39.43;23.13;;;;;;;16.63;95.91;99592.66;5088327;28;20785;-30
2022/11/19 10:02:56;;;;;;;40.40;23.35;;;;;;;16.79;97.28;99593.41;5088202;28;20134;-32
2022/11/19 10:05:53;;;;;;;38.30;23.65;;;;;;;17.02;96.79;99591.25;5069559;28;20026;-29
2022/11/19 10:08:32;;;;;;;43.50;24.75;;;;;;;17.36;94.12;99593.31;5088326;28;20135;-33
2022/11/19 10:11:33;;;;;;;32.85;20.40;;;;;;;17.32;93.34;99582.28;5069946;28;20060;-29
2022/11/19 10:14:01;;;;;;;31.73;17.52;;;;;;;17.31;95.42;99598.75;4997158;28;20546;-31
2022/11/19 10:16:32;;;;;;;29.67;17.13;;;;;;;17.42;94.69;99578.75;5088181;28;20032;-32
2022/11/19 10:19:22;;;;;;;37.08;22.15;;;;;;;17.68;92.77;99584.81;5087867;28;20122;-28
2022/11/19 10:21:54;;;;;;;71.32;39.35;;;;;;;17.83;96.02;99594.75;5087785;28;20024;-29
2022/11/19 10:24:42;;;;;;;33.45;18.77;;;;;;;18.16;91.63;99585.09;5087873;28;20506;-30
2022/11/19 10:27:18;;;;;;;27.90;17.17;;;;;;;18.65;93.71;99576.06;5069650;28;20028;-30
2022/11/19 10:29:46;;;;;;;25.60;15.25;;;;;;;18.94;86.89;99569.88;5069290;28;20039;-30
2022/11/19 10:32:26;;;;;;;26.55;16.27;;;;;;;19.39;84.91;99585.84;5087795;28;20115;-30
2022/11/19 10:34:57;;;;;;;46.55;25.08;;;;;;;19.44;87.40;99572.28;5078234;28;20036;-31
2022/11/19 10:37:29;;;;;;;24.33;15.90;;;;;;;19.68;84.13;99572.22;5067433;28;20537;-30
2022/11/19 10:40:16;;;;;;;21.25;11.98;;;;;;;19.08;84.33;99580.78;5049160;28;20094;-31
2022/11/19 10:42:47;;;;;;;19.93;13.33;;;;;;;19.15;85.14;99581.25;5067132;28;20403;-33
2022/11/19 10:45:19;;;;;;;22.88;13.07;;;;;;;19.44;83.51;99564.16;5067242;28;20266;-32
2022/11/19 10:48:00;;;;;;;21.35;13.93;;;;;;;19.66;83.32;99558.19;5067128;28;20547;-30
2022/11/19 10:50:26;;;;;;;24.35;13.50;;;;;;;19.66;83.00;99531.16;5067060;28;20036;-30
2022/11/19 10:52:56;;;;;;;25.35;15.40;;;;;;;19.53;84.17;99556.19;5067163;28;20036;-29
2022/11/19 10:55:31;;;;;;;21.67;14.07;;;;;;;19.94;81.43;99555.66;5066972;28;20024;-29
2022/11/19 10:58:23;;;;;;;23.50;14.52;;;;;;;20.04;83.15;99550.91;5048886;28;20040;-31
2022/11/19 11:00:51;;;;;;;22.42;14.25;;;;;;;20.07;81.79;99535.97;5049149;28;20028;-33
2022/11/19 11:03:26;;;;;;;22.83;12.30;;;;;;;20.33;81.45;99554.50;5066782;28;20115;-37
2022/11/19 11:06:00;;;;;;;20.65;12.70;;;;;;;20.41;80.21;99553.81;5048188;28;20179;-29
2022/11/19 11:08:26;;;;;;;19.83;12.65;;;;;;;20.75;79.74;99550.03;5048487;28;20060;-33
2022/11/19 11:10:51;;;;;;;20.85;12.50;;;;;;;21.25;77.52;99564.50;5066936;28;20484;-31
2022/11/19 11:16:44;;;;;;;22.30;13.70;;;;;;;21.88;78.07;99564.81;5053509;28;20094;-29
2022/11/19 11:19:17;;;;;;;24.52;13.90;;;;;;;21.88;75.44;99564.81;5048614;28;20020;-30
2022/11/19 11:21:43;;;;;;;21.77;13.90;;;;;;;22.58;73.53;99560.72;5066207;28;20043;-33
2022/11/19 11:24:11;;;;;;;22.45;13.13;;;;;;;22.75;71.30;99551.06;5048587;28;20064;-28
2022/11/19 11:26:37;;;;;;;20.42;12.85;;;;;;;22.38;71.17;99551.16;5048073;28;20468;-32
2022/11/19 11:29:24;;;;;;;28.98;21.02;;;;;;;22.95;70.82;99558.66;5066461;28;20033;-31
2022/11/19 11:31:49;;;;;;;15.80;10.17;;;;;;;22.66;71.16;99557.25;5047949;28;20483;-33
2022/11/19 11:34:35;;;;;;;12.38;8.15;;;;;;;22.12;73.11;99547.44;5066429;28;20039;-29
2022/11/19 11:37:02;;;;;;;14.05;8.85;;;;;;;21.51;74.77;99544.22;5066212;28;20028;-33